Cherrycreek, Mississippi
Current Conditions -  °F | °C
As of 8:53 AM on Saturday 25 Oct 2014 (Local Time) from KTUP Reporting Station
Clear Clear  
Wind Chill: 14°   Ceiling: Unl
Heat Index: 14°   Visibility: 10mi
Dew Point: 12°   Wind: 5mph
Humidity: 84%   Direction: 270°W
Pressure: 30.12"   Gusts: NA
Location:  34.4333°N, 88.8629°W
Report Text: KTUP 251353Z 27004KT 10SM CLR 14/12 A3012 RMK AO2 SLP199 T01440117 $
Loading
Personal Weather Stations






























Interactive Weather Map
Tropical Storm Tracking
New forecast layout! Learn more

10-Day Weather Forecast

Advertisements
Track Severe Weather on mobile